CYCOCYCB

Guest
Details From CYCO - KUGLUKTUK
To CYCB - CAMBRIDGE BAY
Flight Number -
Tags generated
Created
Modified
Stats Distance 241 nm / 447 km
Max Altitude 21,400 ft / 6,523 m
Waypoints 4
Social Downloads 0
Likes 0
Share VATSIM

Download

Looking for another format? Having issues loading an existing format? Contact us
Advertisement - Login to hide

Notes

Basic altitude profile: - Ascent Rate: 2500ft/min - Ascent Speed: 250kts - Cruise Altitude: 35000ft - Cruise Speed: 420kts - Descent Rate: 1500ft/min - Descent Speed: 250kts Options: - Use NATs: yes - Use PACOTS: yes - Use low airways: yes - Use high airways: yes

Route

CYCO 6800N11500W N6900 CYCB

ID Type Via Altitude Latitude Longitude Leg Dist Tot Dist Heading (true) Name
O CYCO APT - 0 ft / 0 m 67.81667˚ -115.14403˚ - 0 nm - KUGLUKTUK
6800N11500W LATLON - 4,100 ft / 1,250 m 68.00000˚ -115.00000˚ 11 nm 11 nm 16° / 17° -
N6900 FIX - 21,400 ft / 6,523 m 69.00000˚ -110.00000˚ 125 nm 136 nm 59° / 64° -
O CYCB APT - 0 ft / 0 m 69.10806˚ -105.13833˚ 104 nm 241 nm 84° / 89° CAMBRIDGE BAY

Altitude Profile

Advertisement - Login to hide

Weather


0- 5 10 15 20 25 30 35+ Temperature / ° C

Clouds and Precipitation
Forecast for 2017-12-18 18:00 UTC. Updated an hour ago

Ground ~20,000 ft ~40,000 ft Winds

CYCO

Details ICAO CYCO (YCO)
Name KUGLUKTUK
Region Canada
Timezone America/Cambridge_Bay (UTC-7.0)
Stats Elevation 74 ft / 23 m (AMSL)
Location 67.816667° -115.144028°
Runways 1
Magnetic Variation 17.495° E

METAR

CYCO 181400Z 32013KT 4SM IC DRSN OVC020 M20/M24 A2987 RMK SC8 SLP120

Decode

TAF

TAF AMD CYCO 181412Z 1814/1901 32012KT P6SM IC OVC020 TEMPO 1814/1901 21/2SM IC -SG BLSN BECMG 1820/1822 27015G25KT RMK NXT FCST BY 181900Z

Decode

Departure Runways

ID Width Length Bearing (true) Bearing (mag) Surface Threshold Offset Overrun Length
12T 100 ft / 30 m 5,497 ft / 1,676 m 121.07° 103.58° Gravel 0 ft / 0 m 0 ft / 0 m
30T 100 ft / 30 m 5,497 ft / 1,676 m 301.10° 283.61° Gravel 0 ft / 0 m 0 ft / 0 m

CYCB

Details ICAO CYCB (YCB)
Name CAMBRIDGE BAY
Region Canada
Timezone America/Cambridge_Bay (UTC-7.0)
Stats Elevation 90 ft / 27 m (AMSL)
Location 69.108056° -105.138334°
Runways 1
Magnetic Variation 6.946° E

METAR

CYCB 181433Z CCA 32010G15KT 12SM IC DRSN FEW015 M33/M36 A2967 RMK SC2 AURBO SLP055

Decode

TAF

TAF AMD TAF AMD CYCB 181413Z 1814/1901 31012KT P6SM SCT015 TEMPO 1814/1819 P6SM -SN BKN015 FM181900 32015G25KT P6SM SCT015 TEMPO 1819/1901 2SM -SN BLSN VV015 RMK NXT FCST BY 181900Z

Decode

Destination Runways

ID Width Length Bearing (true) Bearing (mag) Surface Threshold Offset Overrun Length
13T 150 ft / 46 m 5,006 ft / 1,526 m 127.39° 120.44° Gravel 0 ft / 0 m 0 ft / 0 m
31T 150 ft / 46 m 5,006 ft / 1,526 m 307.42° 300.47° Gravel 0 ft / 0 m 100 ft / 30 m